As Olivia — DYQC — position and weather

sailwx.info

Track history (hours):
 
Tides and Currents Weather Stations Pressure Air Temp Water Temp Dewpoint Dewpoint Depression Visibility Wind Speed Wind Dir Waves Ship Positions

As Olivia

Last reported at 2014-Jul-23 01:09 UTC. Time now 2014-Jul-24 04:22 UTC.
Position N 36°17' E 023°05'.

Length 146 m; draft 6.8 m.

Type: Ship (hazmat cat B). MMSI: 548767000.

Date/timePositionNaut miles runAvg speedWind from/ knotsBaromVisibWave heightAir tempDewpointWater temp
2014-Jul-23 01:09N 36°17' E 023°05'0 0.0
2014-Jul-23 00:15N 36°17' E 023°05'0 0.0
2014-Jul-22 21:21N 36°17' E 023°05'0 0.0
2014-Jul-22 17:21N 36°17' E 023°05'0 0.0
2014-Jul-22 06:34N 36°17' E 023°04'  
2014-Jul-19 12:21N 36°17' E 023°04'  
2014-Jul-13 10:33N 36°29' E 023°24'1413.6
2014-Jul-13 09:30N 36°42' E 023°30'2713.2
2014-Jul-13 07:27N 37°04' E 023°49'1414.5
2014-Jul-13 06:29N 37°14' E 024°01'1415.3
2014-Jul-13 05:33N 37°24' E 024°14'1514.0
2014-Jul-13 04:30N 37°34' E 024°27'1313.3
2014-Jul-13 03:30N 37°47' E 024°33'  
Track history (hours):
 
Tides and Currents Weather Stations Pressure Air Temp Water Temp Dewpoint Dewpoint Depression Visibility Wind Speed Wind Dir Waves Ship Positions

As Olivia

Last reported at 2014-Jul-23 01:09 UTC. Time now 2014-Jul-24 04:22 UTC.
Position N 36°17' E 023°05'.

Length 146 m; draft 6.8 m.

Type: Ship (hazmat cat B). MMSI: 548767000.

Date/timePositionNaut miles runAvg speedWind from/ knotsBaromVisibWave heightAir tempDewpointWater temp
2014-Jul-23 01:09N 36°17' E 023°05'0 0.0
2014-Jul-23 00:15N 36°17' E 023°05'0 0.0
2014-Jul-22 21:21N 36°17' E 023°05'0 0.0
2014-Jul-22 17:21N 36°17' E 023°05'0 0.0
2014-Jul-22 06:34N 36°17' E 023°04'  
2014-Jul-19 12:21N 36°17' E 023°04'  
2014-Jul-13 10:33N 36°29' E 023°24'1413.6
2014-Jul-13 09:30N 36°42' E 023°30'2713.2
2014-Jul-13 07:27N 37°04' E 023°49'1414.5
2014-Jul-13 06:29N 37°14' E 024°01'1415.3
2014-Jul-13 05:33N 37°24' E 024°14'1514.0
2014-Jul-13 04:30N 37°34' E 024°27'1313.3
2014-Jul-13 03:30N 37°47' E 024°33'  

Dump ship's entire track history